sensor_id;sensor_type;location;lat;lon;timestamp;P1;durP1;ratioP1;P2;durP2;ratioP2
19251;SDS011;9760;50.944;5.304;2022-12-13T00:00:43;64.30;;;20.20;;
19251;SDS011;9760;50.944;5.304;2022-12-13T00:03:09;57.47;;;19.67;;
19251;SDS011;9760;50.944;5.304;2022-12-13T00:05:41;63.83;;;20.83;;
19251;SDS011;9760;50.944;5.304;2022-12-13T00:08:07;61.70;;;20.03;;
19251;SDS011;9760;50.944;5.304;2022-12-13T00:10:33;72.17;;;21.63;;
19251;SDS011;9760;50.944;5.304;2022-12-13T00:12:58;59.37;;;20.67;;
19251;SDS011;9760;50.944;5.304;2022-12-13T00:15:24;66.00;;;18.73;;
19251;SDS011;9760;50.944;5.304;2022-12-13T00:17:49;60.77;;;19.63;;
19251;SDS011;9760;50.944;5.304;2022-12-13T00:20:16;57.40;;;20.63;;
19251;SDS011;9760;50.944;5.304;2022-12-13T00:22:42;70.20;;;22.27;;
19251;SDS011;9760;50.944;5.304;2022-12-13T00:25:07;54.00;;;18.27;;
19251;SDS011;9760;50.944;5.304;2022-12-13T00:27:33;48.20;;;19.07;;
19251;SDS011;9760;50.944;5.304;2022-12-13T00:29:59;45.63;;;17.17;;
19251;SDS011;9760;50.944;5.304;2022-12-13T00:32:24;49.73;;;17.87;;
19251;SDS011;9760;50.944;5.304;2022-12-13T00:34:50;55.93;;;18.40;;
19251;SDS011;9760;50.944;5.304;2022-12-13T00:37:15;45.77;;;18.10;;
19251;SDS011;9760;50.944;5.304;2022-12-13T00:39:42;59.83;;;18.03;;
19251;SDS011;9760;50.944;5.304;2022-12-13T00:42:08;50.07;;;17.73;;
19251;SDS011;9760;50.944;5.304;2022-12-13T00:44:34;45.50;;;17.43;;
19251;SDS011;9760;50.944;5.304;2022-12-13T00:46:59;51.73;;;17.57;;
19251;SDS011;9760;50.944;5.304;2022-12-13T00:49:25;49.13;;;17.77;;
19251;SDS011;9760;50.944;5.304;2022-12-13T00:51:51;44.80;;;17.77;;
19251;SDS011;9760;50.944;5.304;2022-12-13T00:54:16;49.17;;;18.37;;
19251;SDS011;9760;50.944;5.304;2022-12-13T00:56:42;44.40;;;16.53;;
19251;SDS011;9760;50.944;5.304;2022-12-13T00:59:08;48.87;;;17.30;;
19251;SDS011;9760;50.944;5.304;2022-12-13T01:01:37;47.70;;;16.03;;
19251;SDS011;9760;50.944;5.304;2022-12-13T01:04:03;45.50;;;16.87;;
19251;SDS011;9760;50.944;5.304;2022-12-13T01:06:36;53.10;;;17.73;;
19251;SDS011;9760;50.944;5.304;2022-12-13T01:09:09;52.23;;;19.03;;
19251;SDS011;9760;50.944;5.304;2022-12-13T01:11:42;45.80;;;17.90;;
19251;SDS011;9760;50.944;5.304;2022-12-13T01:14:08;63.13;;;19.33;;
19251;SDS011;9760;50.944;5.304;2022-12-13T01:16:34;47.20;;;17.43;;
19251;SDS011;9760;50.944;5.304;2022-12-13T01:18:59;51.20;;;16.73;;
19251;SDS011;9760;50.944;5.304;2022-12-13T01:21:25;45.83;;;17.30;;
19251;SDS011;9760;50.944;5.304;2022-12-13T01:23:51;47.30;;;17.63;;
19251;SDS011;9760;50.944;5.304;2022-12-13T01:26:18;47.67;;;17.60;;
19251;SDS011;9760;50.944;5.304;2022-12-13T01:28:45;49.10;;;18.33;;
19251;SDS011;9760;50.944;5.304;2022-12-13T01:31:12;43.53;;;17.10;;
19251;SDS011;9760;50.944;5.304;2022-12-13T01:33:40;53.23;;;18.17;;
19251;SDS011;9760;50.944;5.304;2022-12-13T01:36:07;46.57;;;16.17;;
19251;SDS011;9760;50.944;5.304;2022-12-13T01:38:34;42.57;;;16.43;;
19251;SDS011;9760;50.944;5.304;2022-12-13T01:41:00;56.73;;;17.53;;
19251;SDS011;9760;50.944;5.304;2022-12-13T01:46:01;50.27;;;16.47;;
19251;SDS011;9760;50.944;5.304;2022-12-13T01:48:28;41.20;;;14.97;;
19251;SDS011;9760;50.944;5.304;2022-12-13T01:50:58;40.93;;;15.50;;
19251;SDS011;9760;50.944;5.304;2022-12-13T01:53:28;37.30;;;14.90;;
19251;SDS011;9760;50.944;5.304;2022-12-13T01:55:57;43.53;;;15.20;;
19251;SDS011;9760;50.944;5.304;2022-12-13T01:58:30;48.93;;;16.37;;
19251;SDS011;9760;50.944;5.304;2022-12-13T02:00:57;43.40;;;13.83;;
19251;SDS011;9760;50.944;5.304;2022-12-13T02:03:24;46.33;;;15.90;;
19251;SDS011;9760;50.944;5.304;2022-12-13T02:08:21;36.97;;;14.13;;
19251;SDS011;9760;50.944;5.304;2022-12-13T02:10:49;44.93;;;13.87;;
19251;SDS011;9760;50.944;5.304;2022-12-13T02:13:15;34.73;;;13.93;;
19251;SDS011;9760;50.944;5.304;2022-12-13T02:15:47;42.27;;;14.17;;
19251;SDS011;9760;50.944;5.304;2022-12-13T02:18:30;36.03;;;14.17;;
19251;SDS011;9760;50.944;5.304;2022-12-13T02:27:02;36.30;;;13.93;;
19251;SDS011;9760;50.944;5.304;2022-12-13T02:39:59;36.30;;;14.03;;
19251;SDS011;9760;50.944;5.304;2022-12-13T02:45:22;37.43;;;12.73;;
19251;SDS011;9760;50.944;5.304;2022-12-13T02:47:56;40.93;;;13.10;;
19251;SDS011;9760;50.944;5.304;2022-12-13T02:50:24;36.53;;;11.50;;
19251;SDS011;9760;50.944;5.304;2022-12-13T02:52:51;35.93;;;12.50;;
19251;SDS011;9760;50.944;5.304;2022-12-13T02:55:17;39.97;;;12.00;;
19251;SDS011;9760;50.944;5.304;2022-12-13T02:57:44;32.40;;;11.57;;
19251;SDS011;9760;50.944;5.304;2022-12-13T03:03:10;30.33;;;11.13;;
19251;SDS011;9760;50.944;5.304;2022-12-13T03:11:37;29.20;;;11.53;;
19251;SDS011;9760;50.944;5.304;2022-12-13T03:14:24;31.93;;;11.03;;
19251;SDS011;9760;50.944;5.304;2022-12-13T03:16:50;31.10;;;10.93;;
19251;SDS011;9760;50.944;5.304;2022-12-13T03:19:17;34.60;;;12.40;;
19251;SDS011;9760;50.944;5.304;2022-12-13T03:21:44;35.00;;;11.07;;
19251;SDS011;9760;50.944;5.304;2022-12-13T03:24:12;29.33;;;11.43;;
19251;SDS011;9760;50.944;5.304;2022-12-13T03:26:40;29.50;;;10.87;;
19251;SDS011;9760;50.944;5.304;2022-12-13T03:29:06;33.87;;;11.63;;
19251;SDS011;9760;50.944;5.304;2022-12-13T03:31:31;28.27;;;11.47;;
19251;SDS011;9760;50.944;5.304;2022-12-13T03:33:57;29.93;;;11.57;;
19251;SDS011;9760;50.944;5.304;2022-12-13T03:36:23;26.43;;;11.00;;
19251;SDS011;9760;50.944;5.304;2022-12-13T03:38:49;34.20;;;11.80;;
19251;SDS011;9760;50.944;5.304;2022-12-13T03:41:18;30.97;;;11.80;;
19251;SDS011;9760;50.944;5.304;2022-12-13T03:43:46;31.30;;;11.13;;
19251;SDS011;9760;50.944;5.304;2022-12-13T03:46:12;28.83;;;11.30;;
19251;SDS011;9760;50.944;5.304;2022-12-13T03:48:38;31.40;;;12.63;;
19251;SDS011;9760;50.944;5.304;2022-12-13T03:51:03;29.10;;;10.87;;
19251;SDS011;9760;50.944;5.304;2022-12-13T03:53:29;31.23;;;11.37;;
19251;SDS011;9760;50.944;5.304;2022-12-13T03:55:55;29.03;;;10.80;;
19251;SDS011;9760;50.944;5.304;2022-12-13T03:58:21;30.37;;;11.20;;
19251;SDS011;9760;50.944;5.304;2022-12-13T04:00:47;34.90;;;11.97;;
19251;SDS011;9760;50.944;5.304;2022-12-13T04:03:13;31.03;;;12.03;;
19251;SDS011;9760;50.944;5.304;2022-12-13T04:05:39;32.23;;;11.87;;
19251;SDS011;9760;50.944;5.304;2022-12-13T04:08:04;30.97;;;10.60;;
19251;SDS011;9760;50.944;5.304;2022-12-13T04:10:30;31.23;;;11.50;;
19251;SDS011;9760;50.944;5.304;2022-12-13T04:12:56;27.47;;;10.47;;
19251;SDS011;9760;50.944;5.304;2022-12-13T04:15:40;28.63;;;11.73;;
19251;SDS011;9760;50.944;5.304;2022-12-13T04:18:13;26.93;;;10.73;;
19251;SDS011;9760;50.944;5.304;2022-12-13T04:20:40;35.27;;;11.33;;
19251;SDS011;9760;50.944;5.304;2022-12-13T04:23:06;24.63;;;10.27;;
19251;SDS011;9760;50.944;5.304;2022-12-13T04:25:31;30.53;;;10.40;;
19251;SDS011;9760;50.944;5.304;2022-12-13T04:27:57;28.83;;;11.30;;
19251;SDS011;9760;50.944;5.304;2022-12-13T04:30:23;36.13;;;11.33;;
19251;SDS011;9760;50.944;5.304;2022-12-13T04:32:48;34.37;;;11.77;;
19251;SDS011;9760;50.944;5.304;2022-12-13T04:35:14;35.57;;;11.47;;
19251;SDS011;9760;50.944;5.304;2022-12-13T04:37:40;34.13;;;11.30;;
19251;SDS011;9760;50.944;5.304;2022-12-13T04:40:05;28.63;;;11.00;;
19251;SDS011;9760;50.944;5.304;2022-12-13T04:42:31;22.43;;;9.80;;
19251;SDS011;9760;50.944;5.304;2022-12-13T04:44:57;29.47;;;11.10;;
19251;SDS011;9760;50.944;5.304;2022-12-13T04:47:23;28.60;;;9.97;;
19251;SDS011;9760;50.944;5.304;2022-12-13T04:49:48;36.97;;;11.37;;
19251;SDS011;9760;50.944;5.304;2022-12-13T04:52:14;34.13;;;11.10;;
19251;SDS011;9760;50.944;5.304;2022-12-13T04:54:40;30.07;;;10.93;;
19251;SDS011;9760;50.944;5.304;2022-12-13T04:57:05;27.43;;;10.33;;
19251;SDS011;9760;50.944;5.304;2022-12-13T04:59:34;31.20;;;10.43;;
19251;SDS011;9760;50.944;5.304;2022-12-13T05:02:00;25.80;;;10.40;;
19251;SDS011;9760;50.944;5.304;2022-12-13T05:04:27;31.73;;;12.03;;
19251;SDS011;9760;50.944;5.304;2022-12-13T05:06:52;30.27;;;11.63;;
19251;SDS011;9760;50.944;5.304;2022-12-13T05:09:18;31.37;;;12.63;;
19251;SDS011;9760;50.944;5.304;2022-12-13T05:11:44;30.33;;;11.87;;
19251;SDS011;9760;50.944;5.304;2022-12-13T05:14:09;37.47;;;12.00;;
19251;SDS011;9760;50.944;5.304;2022-12-13T05:16:35;31.70;;;11.30;;
19251;SDS011;9760;50.944;5.304;2022-12-13T05:19:00;25.67;;;10.77;;
19251;SDS011;9760;50.944;5.304;2022-12-13T05:21:26;30.20;;;12.00;;
19251;SDS011;9760;50.944;5.304;2022-12-13T05:23:51;33.73;;;12.03;;
19251;SDS011;9760;50.944;5.304;2022-12-13T05:26:17;30.60;;;10.80;;
19251;SDS011;9760;50.944;5.304;2022-12-13T05:28:42;30.03;;;12.20;;
19251;SDS011;9760;50.944;5.304;2022-12-13T05:31:09;28.63;;;11.37;;
19251;SDS011;9760;50.944;5.304;2022-12-13T05:33:35;40.27;;;12.30;;
19251;SDS011;9760;50.944;5.304;2022-12-13T05:36:01;36.53;;;13.67;;
19251;SDS011;9760;50.944;5.304;2022-12-13T05:38:27;34.70;;;12.00;;
19251;SDS011;9760;50.944;5.304;2022-12-13T05:40:53;34.27;;;11.53;;
19251;SDS011;9760;50.944;5.304;2022-12-13T05:43:19;35.70;;;12.20;;
19251;SDS011;9760;50.944;5.304;2022-12-13T05:45:45;33.27;;;12.40;;
19251;SDS011;9760;50.944;5.304;2022-12-13T05:48:10;42.90;;;12.43;;
19251;SDS011;9760;50.944;5.304;2022-12-13T05:50:36;35.07;;;11.83;;
19251;SDS011;9760;50.944;5.304;2022-12-13T05:53:05;30.87;;;12.37;;
19251;SDS011;9760;50.944;5.304;2022-12-13T05:55:31;27.67;;;12.00;;
19251;SDS011;9760;50.944;5.304;2022-12-13T05:57:57;32.63;;;12.27;;
19251;SDS011;9760;50.944;5.304;2022-12-13T06:00:23;32.17;;;13.33;;
19251;SDS011;9760;50.944;5.304;2022-12-13T06:02:49;34.53;;;13.07;;
19251;SDS011;9760;50.944;5.304;2022-12-13T06:05:15;40.73;;;12.47;;
19251;SDS011;9760;50.944;5.304;2022-12-13T06:07:41;30.10;;;11.17;;
19251;SDS011;9760;50.944;5.304;2022-12-13T06:10:07;35.47;;;12.50;;
19251;SDS011;9760;50.944;5.304;2022-12-13T06:12:33;39.00;;;12.30;;
19251;SDS011;9760;50.944;5.304;2022-12-13T06:14:59;35.40;;;12.13;;
19251;SDS011;9760;50.944;5.304;2022-12-13T06:17:28;31.60;;;11.77;;
19251;SDS011;9760;50.944;5.304;2022-12-13T06:19:55;34.03;;;12.53;;
19251;SDS011;9760;50.944;5.304;2022-12-13T06:22:21;33.43;;;12.30;;
19251;SDS011;9760;50.944;5.304;2022-12-13T06:24:47;42.50;;;15.13;;
19251;SDS011;9760;50.944;5.304;2022-12-13T06:27:12;33.17;;;12.60;;
19251;SDS011;9760;50.944;5.304;2022-12-13T06:29:38;35.63;;;12.70;;
19251;SDS011;9760;50.944;5.304;2022-12-13T06:32:03;39.23;;;13.63;;
19251;SDS011;9760;50.944;5.304;2022-12-13T06:34:33;31.00;;;12.57;;
19251;SDS011;9760;50.944;5.304;2022-12-13T06:37:00;35.17;;;13.43;;
19251;SDS011;9760;50.944;5.304;2022-12-13T06:39:31;34.70;;;12.33;;
19251;SDS011;9760;50.944;5.304;2022-12-13T06:41:56;31.77;;;12.30;;
19251;SDS011;9760;50.944;5.304;2022-12-13T06:44:22;41.67;;;12.00;;
19251;SDS011;9760;50.944;5.304;2022-12-13T06:46:48;35.00;;;11.87;;
19251;SDS011;9760;50.944;5.304;2022-12-13T06:49:13;37.67;;;12.43;;
19251;SDS011;9760;50.944;5.304;2022-12-13T06:51:39;31.00;;;12.47;;
19251;SDS011;9760;50.944;5.304;2022-12-13T06:54:05;34.57;;;13.30;;
19251;SDS011;9760;50.944;5.304;2022-12-13T06:56:30;42.60;;;12.77;;
19251;SDS011;9760;50.944;5.304;2022-12-13T06:58:57;30.50;;;11.53;;
19251;SDS011;9760;50.944;5.304;2022-12-13T07:01:22;31.33;;;12.17;;
19251;SDS011;9760;50.944;5.304;2022-12-13T07:03:48;42.43;;;13.13;;
19251;SDS011;9760;50.944;5.304;2022-12-13T07:06:15;38.07;;;13.77;;
19251;SDS011;9760;50.944;5.304;2022-12-13T07:08:43;30.37;;;11.57;;
19251;SDS011;9760;50.944;5.304;2022-12-13T07:11:14;38.83;;;12.90;;
19251;SDS011;9760;50.944;5.304;2022-12-13T07:13:41;42.23;;;12.87;;
19251;SDS011;9760;50.944;5.304;2022-12-13T07:16:07;31.17;;;12.13;;
19251;SDS011;9760;50.944;5.304;2022-12-13T07:18:33;36.40;;;12.90;;
19251;SDS011;9760;50.944;5.304;2022-12-13T07:20:59;41.40;;;13.37;;
19251;SDS011;9760;50.944;5.304;2022-12-13T07:23:24;32.20;;;11.97;;
19251;SDS011;9760;50.944;5.304;2022-12-13T07:25:53;40.13;;;13.60;;
19251;SDS011;9760;50.944;5.304;2022-12-13T07:28:19;46.27;;;13.60;;
19251;SDS011;9760;50.944;5.304;2022-12-13T07:30:46;34.77;;;12.60;;
19251;SDS011;9760;50.944;5.304;2022-12-13T07:33:12;33.43;;;12.40;;
19251;SDS011;9760;50.944;5.304;2022-12-13T07:35:39;43.60;;;13.13;;
19251;SDS011;9760;50.944;5.304;2022-12-13T07:38:05;35.37;;;13.33;;
19251;SDS011;9760;50.944;5.304;2022-12-13T07:40:33;37.27;;;14.23;;
19251;SDS011;9760;50.944;5.304;2022-12-13T07:42:59;42.53;;;13.60;;
19251;SDS011;9760;50.944;5.304;2022-12-13T07:45:25;36.17;;;14.20;;
19251;SDS011;9760;50.944;5.304;2022-12-13T07:47:51;39.23;;;14.10;;
19251;SDS011;9760;50.944;5.304;2022-12-13T07:50:17;45.10;;;14.30;;
19251;SDS011;9760;50.944;5.304;2022-12-13T07:52:45;40.93;;;14.40;;
19251;SDS011;9760;50.944;5.304;2022-12-13T07:55:12;49.40;;;14.60;;
19251;SDS011;9760;50.944;5.304;2022-12-13T07:57:37;40.37;;;15.23;;
19251;SDS011;9760;50.944;5.304;2022-12-13T08:00:03;42.47;;;15.33;;
19251;SDS011;9760;50.944;5.304;2022-12-13T08:02:29;34.40;;;13.53;;
19251;SDS011;9760;50.944;5.304;2022-12-13T08:04:54;39.07;;;13.77;;
19251;SDS011;9760;50.944;5.304;2022-12-13T08:07:20;40.07;;;15.10;;
19251;SDS011;9760;50.944;5.304;2022-12-13T08:09:46;42.37;;;15.57;;
19251;SDS011;9760;50.944;5.304;2022-12-13T08:12:12;45.93;;;14.73;;
19251;SDS011;9760;50.944;5.304;2022-12-13T08:14:38;38.63;;;14.93;;
19251;SDS011;9760;50.944;5.304;2022-12-13T08:17:03;46.73;;;18.07;;
19251;SDS011;9760;50.944;5.304;2022-12-13T08:19:29;44.73;;;16.50;;
19251;SDS011;9760;50.944;5.304;2022-12-13T08:21:54;52.60;;;17.10;;
19251;SDS011;9760;50.944;5.304;2022-12-13T08:24:21;56.47;;;18.40;;
19251;SDS011;9760;50.944;5.304;2022-12-13T08:26:50;47.43;;;18.10;;
19251;SDS011;9760;50.944;5.304;2022-12-13T08:29:16;50.40;;;18.37;;
19251;SDS011;9760;50.944;5.304;2022-12-13T08:31:43;53.30;;;17.83;;
19251;SDS011;9760;50.944;5.304;2022-12-13T08:34:08;51.60;;;19.03;;
19251;SDS011;9760;50.944;5.304;2022-12-13T08:36:34;48.03;;;18.03;;
19251;SDS011;9760;50.944;5.304;2022-12-13T08:38:59;56.87;;;18.53;;
19251;SDS011;9760;50.944;5.304;2022-12-13T08:41:28;46.53;;;16.97;;
19251;SDS011;9760;50.944;5.304;2022-12-13T08:43:54;58.10;;;18.90;;
19251;SDS011;9760;50.944;5.304;2022-12-13T08:46:20;56.03;;;19.03;;
19251;SDS011;9760;50.944;5.304;2022-12-13T08:48:45;55.63;;;19.33;;
19251;SDS011;9760;50.944;5.304;2022-12-13T08:51:11;58.97;;;19.87;;
19251;SDS011;9760;50.944;5.304;2022-12-13T08:53:39;60.70;;;19.67;;
19251;SDS011;9760;50.944;5.304;2022-12-13T08:56:13;57.13;;;20.50;;
19251;SDS011;9760;50.944;5.304;2022-12-13T08:58:39;60.90;;;19.97;;
19251;SDS011;9760;50.944;5.304;2022-12-13T09:01:05;59.50;;;21.17;;
19251;SDS011;9760;50.944;5.304;2022-12-13T09:03:32;56.90;;;19.77;;
19251;SDS011;9760;50.944;5.304;2022-12-13T09:06:04;54.90;;;19.97;;
19251;SDS011;9760;50.944;5.304;2022-12-13T09:08:34;57.50;;;20.23;;
19251;SDS011;9760;50.944;5.304;2022-12-13T09:11:01;60.03;;;21.33;;
19251;SDS011;9760;50.944;5.304;2022-12-13T09:13:28;62.00;;;20.30;;
19251;SDS011;9760;50.944;5.304;2022-12-13T09:15:55;56.90;;;20.83;;
19251;SDS011;9760;50.944;5.304;2022-12-13T09:18:21;66.37;;;21.90;;
19251;SDS011;9760;50.944;5.304;2022-12-13T09:20:46;63.90;;;23.20;;
19251;SDS011;9760;50.944;5.304;2022-12-13T09:23:12;71.20;;;24.10;;
19251;SDS011;9760;50.944;5.304;2022-12-13T09:25:38;60.53;;;23.10;;
19251;SDS011;9760;50.944;5.304;2022-12-13T09:28:04;70.50;;;22.70;;
19251;SDS011;9760;50.944;5.304;2022-12-13T09:30:31;62.67;;;22.30;;
19251;SDS011;9760;50.944;5.304;2022-12-13T09:32:57;70.77;;;22.70;;
19251;SDS011;9760;50.944;5.304;2022-12-13T09:35:22;73.73;;;23.40;;
19251;SDS011;9760;50.944;5.304;2022-12-13T09:37:48;69.33;;;22.23;;
19251;SDS011;9760;50.944;5.304;2022-12-13T09:40:18;68.80;;;23.87;;
19251;SDS011;9760;50.944;5.304;2022-12-13T09:42:47;62.37;;;22.80;;
19251;SDS011;9760;50.944;5.304;2022-12-13T09:45:15;68.50;;;22.93;;
19251;SDS011;9760;50.944;5.304;2022-12-13T09:47:42;73.37;;;22.80;;
19251;SDS011;9760;50.944;5.304;2022-12-13T09:50:14;69.83;;;21.40;;
19251;SDS011;9760;50.944;5.304;2022-12-13T09:52:45;72.50;;;23.37;;
19251;SDS011;9760;50.944;5.304;2022-12-13T09:55:24;66.37;;;20.50;;
19251;SDS011;9760;50.944;5.304;2022-12-13T09:57:53;64.63;;;24.37;;
19251;SDS011;9760;50.944;5.304;2022-12-13T10:00:20;67.90;;;22.80;;
19251;SDS011;9760;50.944;5.304;2022-12-13T10:02:49;63.47;;;21.73;;
19251;SDS011;9760;50.944;5.304;2022-12-13T10:07:58;59.93;;;21.07;;
19251;SDS011;9760;50.944;5.304;2022-12-13T10:10:28;57.27;;;21.67;;
19251;SDS011;9760;50.944;5.304;2022-12-13T10:13:00;51.30;;;20.33;;
19251;SDS011;9760;50.944;5.304;2022-12-13T10:15:35;59.63;;;22.00;;
19251;SDS011;9760;50.944;5.304;2022-12-13T10:18:05;56.87;;;19.60;;
19251;SDS011;9760;50.944;5.304;2022-12-13T10:20:33;56.10;;;20.40;;
19251;SDS011;9760;50.944;5.304;2022-12-13T10:22:59;61.87;;;21.67;;
19251;SDS011;9760;50.944;5.304;2022-12-13T10:25:45;61.53;;;22.60;;
19251;SDS011;9760;50.944;5.304;2022-12-13T10:28:15;58.83;;;20.80;;
19251;SDS011;9760;50.944;5.304;2022-12-13T10:30:42;55.40;;;20.37;;
19251;SDS011;9760;50.944;5.304;2022-12-13T10:33:18;55.10;;;20.20;;
19251;SDS011;9760;50.944;5.304;2022-12-13T10:36:00;58.40;;;21.53;;
19251;SDS011;9760;50.944;5.304;2022-12-13T10:38:34;56.90;;;21.03;;
19251;SDS011;9760;50.944;5.304;2022-12-13T10:41:01;53.23;;;20.10;;
19251;SDS011;9760;50.944;5.304;2022-12-13T10:43:27;54.97;;;20.03;;
19251;SDS011;9760;50.944;5.304;2022-12-13T10:48:31;52.63;;;18.63;;
19251;SDS011;9760;50.944;5.304;2022-12-13T10:51:10;52.90;;;19.67;;
19251;SDS011;9760;50.944;5.304;2022-12-13T10:56:10;48.23;;;18.60;;
19251;SDS011;9760;50.944;5.304;2022-12-13T10:58:38;51.43;;;18.93;;
19251;SDS011;9760;50.944;5.304;2022-12-13T11:03:54;52.50;;;19.83;;
19251;SDS011;9760;50.944;5.304;2022-12-13T11:06:22;53.23;;;20.60;;
19251;SDS011;9760;50.944;5.304;2022-12-13T11:08:47;58.60;;;21.87;;
19251;SDS011;9760;50.944;5.304;2022-12-13T11:11:14;53.97;;;20.37;;
19251;SDS011;9760;50.944;5.304;2022-12-13T11:16:25;52.67;;;18.80;;
19251;SDS011;9760;50.944;5.304;2022-12-13T11:18:55;47.33;;;19.10;;
19251;SDS011;9760;50.944;5.304;2022-12-13T11:21:45;50.80;;;18.93;;
19251;SDS011;9760;50.944;5.304;2022-12-13T11:24:17;47.27;;;18.40;;
19251;SDS011;9760;50.944;5.304;2022-12-13T11:26:52;51.87;;;19.30;;
19251;SDS011;9760;50.944;5.304;2022-12-13T11:46:33;50.60;;;18.20;;
19251;SDS011;9760;50.944;5.304;2022-12-13T11:49:03;53.63;;;18.67;;
19251;SDS011;9760;50.944;5.304;2022-12-13T11:51:49;48.93;;;17.30;;
19251;SDS011;9760;50.944;5.304;2022-12-13T11:57:16;42.63;;;17.13;;
19251;SDS011;9760;50.944;5.304;2022-12-13T11:59:56;51.73;;;16.33;;
19251;SDS011;9760;50.944;5.304;2022-12-13T12:02:48;45.50;;;17.13;;
19251;SDS011;9760;50.944;5.304;2022-12-13T12:05:31;43.87;;;16.47;;
19251;SDS011;9760;50.944;5.304;2022-12-13T12:08:11;44.03;;;15.93;;
19251;SDS011;9760;50.944;5.304;2022-12-13T12:10:47;50.00;;;17.17;;
19251;SDS011;9760;50.944;5.304;2022-12-13T12:13:30;51.20;;;16.00;;
19251;SDS011;9760;50.944;5.304;2022-12-13T12:18:38;41.20;;;14.93;;
19251;SDS011;9760;50.944;5.304;2022-12-13T12:23:52;50.33;;;15.93;;
19251;SDS011;9760;50.944;5.304;2022-12-13T12:27:14;38.60;;;14.30;;
19251;SDS011;9760;50.944;5.304;2022-12-13T12:34:56;47.07;;;16.57;;
19251;SDS011;9760;50.944;5.304;2022-12-13T12:37:52;49.20;;;16.10;;
19251;SDS011;9760;50.944;5.304;2022-12-13T12:51:35;48.57;;;15.63;;
19251;SDS011;9760;50.944;5.304;2022-12-13T12:54:32;39.23;;;15.37;;
19251;SDS011;9760;50.944;5.304;2022-12-13T12:57:31;38.83;;;15.07;;
19251;SDS011;9760;50.944;5.304;2022-12-13T13:00:11;41.77;;;15.37;;
19251;SDS011;9760;50.944;5.304;2022-12-13T13:02:44;38.23;;;15.03;;
19251;SDS011;9760;50.944;5.304;2022-12-13T13:05:22;44.40;;;15.50;;
19251;SDS011;9760;50.944;5.304;2022-12-13T13:08:10;40.77;;;15.53;;
19251;SDS011;9760;50.944;5.304;2022-12-13T13:11:01;48.20;;;15.10;;
19251;SDS011;9760;50.944;5.304;2022-12-13T13:13:32;64.47;;;16.57;;
19251;SDS011;9760;50.944;5.304;2022-12-13T13:15:59;47.93;;;15.73;;
19251;SDS011;9760;50.944;5.304;2022-12-13T13:18:45;42.27;;;14.90;;
19251;SDS011;9760;50.944;5.304;2022-12-13T13:26:32;44.80;;;13.77;;
19251;SDS011;9760;50.944;5.304;2022-12-13T13:34:23;46.37;;;14.93;;
19251;SDS011;9760;50.944;5.304;2022-12-13T13:36:50;40.43;;;14.37;;
19251;SDS011;9760;50.944;5.304;2022-12-13T13:49:37;41.47;;;15.77;;
19251;SDS011;9760;50.944;5.304;2022-12-13T13:52:24;40.57;;;14.67;;
19251;SDS011;9760;50.944;5.304;2022-12-13T13:55:12;49.60;;;15.97;;
19251;SDS011;9760;50.944;5.304;2022-12-13T14:09:25;44.53;;;16.13;;
19251;SDS011;9760;50.944;5.304;2022-12-13T14:23:15;43.80;;;16.53;;
19251;SDS011;9760;50.944;5.304;2022-12-13T14:25:59;45.23;;;16.53;;
19251;SDS011;9760;50.944;5.304;2022-12-13T14:31:43;40.73;;;14.90;;
19251;SDS011;9760;50.944;5.304;2022-12-13T14:34:29;44.40;;;15.47;;
19251;SDS011;9760;50.944;5.304;2022-12-13T14:37:00;42.33;;;15.70;;
19251;SDS011;9760;50.944;5.304;2022-12-13T14:39:30;40.57;;;15.77;;
19251;SDS011;9760;50.944;5.304;2022-12-13T14:41:59;43.87;;;16.10;;
19251;SDS011;9760;50.944;5.304;2022-12-13T14:44:27;46.53;;;15.23;;
19251;SDS011;9760;50.944;5.304;2022-12-13T14:49:23;41.63;;;14.80;;
19251;SDS011;9760;50.944;5.304;2022-12-13T14:51:54;39.03;;;14.97;;
19251;SDS011;9760;50.944;5.304;2022-12-13T14:54:29;38.53;;;15.00;;
19251;SDS011;9760;50.944;5.304;2022-12-13T14:57:02;47.97;;;16.30;;
19251;SDS011;9760;50.944;5.304;2022-12-13T14:59:29;38.13;;;14.23;;
19251;SDS011;9760;50.944;5.304;2022-12-13T15:01:58;31.20;;;13.77;;
19251;SDS011;9760;50.944;5.304;2022-12-13T15:07:04;40.03;;;14.43;;
19251;SDS011;9760;50.944;5.304;2022-12-13T15:09:45;40.70;;;15.17;;
19251;SDS011;9760;50.944;5.304;2022-12-13T15:12:17;36.80;;;14.33;;
19251;SDS011;9760;50.944;5.304;2022-12-13T15:14:46;43.13;;;15.40;;
19251;SDS011;9760;50.944;5.304;2022-12-13T15:17:23;44.70;;;14.97;;
19251;SDS011;9760;50.944;5.304;2022-12-13T15:19:49;38.33;;;15.77;;
19251;SDS011;9760;50.944;5.304;2022-12-13T15:22:15;54.00;;;15.23;;
19251;SDS011;9760;50.944;5.304;2022-12-13T15:24:40;41.60;;;15.47;;
19251;SDS011;9760;50.944;5.304;2022-12-13T15:27:13;45.73;;;15.43;;
19251;SDS011;9760;50.944;5.304;2022-12-13T15:29:41;37.00;;;14.50;;
19251;SDS011;9760;50.944;5.304;2022-12-13T15:32:10;35.30;;;13.87;;
19251;SDS011;9760;50.944;5.304;2022-12-13T15:34:43;34.50;;;12.93;;
19251;SDS011;9760;50.944;5.304;2022-12-13T15:39:38;33.53;;;14.03;;
19251;SDS011;9760;50.944;5.304;2022-12-13T15:42:12;39.43;;;14.70;;
19251;SDS011;9760;50.944;5.304;2022-12-13T15:44:46;47.17;;;14.90;;
19251;SDS011;9760;50.944;5.304;2022-12-13T15:47:17;44.93;;;15.23;;
19251;SDS011;9760;50.944;5.304;2022-12-13T15:49:48;39.67;;;15.30;;
19251;SDS011;9760;50.944;5.304;2022-12-13T15:54:40;40.90;;;14.73;;
19251;SDS011;9760;50.944;5.304;2022-12-13T15:57:22;35.83;;;13.40;;
19251;SDS011;9760;50.944;5.304;2022-12-13T16:00:05;33.90;;;13.53;;
19251;SDS011;9760;50.944;5.304;2022-12-13T16:05:33;45.57;;;14.03;;
19251;SDS011;9760;50.944;5.304;2022-12-13T16:08:01;38.63;;;13.30;;
19251;SDS011;9760;50.944;5.304;2022-12-13T16:10:30;39.03;;;13.93;;
19251;SDS011;9760;50.944;5.304;2022-12-13T16:13:03;35.37;;;14.53;;
19251;SDS011;9760;50.944;5.304;2022-12-13T16:15:31;38.10;;;15.33;;
19251;SDS011;9760;50.944;5.304;2022-12-13T16:20:46;36.73;;;15.43;;
19251;SDS011;9760;50.944;5.304;2022-12-13T16:23:12;41.00;;;15.03;;
19251;SDS011;9760;50.944;5.304;2022-12-13T16:25:38;32.57;;;13.30;;
19251;SDS011;9760;50.944;5.304;2022-12-13T16:28:04;31.93;;;13.67;;
19251;SDS011;9760;50.944;5.304;2022-12-13T16:31:16;36.60;;;13.77;;
19251;SDS011;9760;50.944;5.304;2022-12-13T16:33:16;39.63;;;13.87;;
19251;SDS011;9760;50.944;5.304;2022-12-13T16:35:45;42.23;;;15.40;;
19251;SDS011;9760;50.944;5.304;2022-12-13T16:38:12;44.93;;;14.93;;
19251;SDS011;9760;50.944;5.304;2022-12-13T16:40:39;38.10;;;15.27;;
19251;SDS011;9760;50.944;5.304;2022-12-13T16:43:05;40.90;;;16.00;;
19251;SDS011;9760;50.944;5.304;2022-12-13T16:45:39;34.83;;;13.97;;
19251;SDS011;9760;50.944;5.304;2022-12-13T16:48:10;37.33;;;13.70;;
19251;SDS011;9760;50.944;5.304;2022-12-13T16:50:38;36.00;;;13.47;;
19251;SDS011;9760;50.944;5.304;2022-12-13T16:53:06;34.50;;;13.33;;
19251;SDS011;9760;50.944;5.304;2022-12-13T16:55:32;31.10;;;12.57;;
19251;SDS011;9760;50.944;5.304;2022-12-13T16:57:58;35.27;;;13.40;;
19251;SDS011;9760;50.944;5.304;2022-12-13T17:00:26;39.40;;;14.53;;
19251;SDS011;9760;50.944;5.304;2022-12-13T17:02:53;33.50;;;12.43;;
19251;SDS011;9760;50.944;5.304;2022-12-13T17:05:20;36.57;;;13.43;;
19251;SDS011;9760;50.944;5.304;2022-12-13T17:07:46;37.13;;;12.60;;
19251;SDS011;9760;50.944;5.304;2022-12-13T17:10:12;30.33;;;12.60;;
19251;SDS011;9760;50.944;5.304;2022-12-13T17:12:38;38.93;;;12.47;;
19251;SDS011;9760;50.944;5.304;2022-12-13T17:15:04;31.57;;;12.37;;
19251;SDS011;9760;50.944;5.304;2022-12-13T17:17:30;28.63;;;12.07;;